Terminal Aerodrome Forecast
Issued by NWS Shreveport, LA

Home | Current Version | Previous Version | Text Only | Print | Product List | Glossary On
Versions: 1 2 3 4 5 6 7 8 9 10 11 12 13 14 15 16 17 18
000
FTUS44 KSHV 110500
TAFMLU
TAF
KMLU 110535Z 1106/1206 VRB03KT P6SM FEW050 SCT100 BKN250
      TEMPO 1110/1113 5SM BR
     FM111300 VRB04KT P6SM SCT040 SCT100 SCT250
     FM111800 VRB05KT P6SM SCT050 SCT250
     FM120100 VRB03KT P6SM FEW060 SCT250=

USA.gov is the U.S. government's official web portal to all federal, state and local government web resources and services.